Main page
METAR-TAF:

METAR-TAF

Airports :

Netaji Subhas Chandra Bose International Airport

Kolkata, India

latitude: 22-39N, longitude: 088-27E, elevation: 4 m

Current weather observation

The report was made 40 minutes ago, at 17:00 UTC
Wind 5 kt from the South/Southeast
Temperature 24°C
Humidity 83%
Pressure 1010 hPa
Visibility: 3500 m
Few clouds at a height of 10000 ft
haze

METAR: VECC 221700Z 16005KT 3500 HZ FEW100 24/21 Q1010 NOSIG

Time: 23:10 (17:40 UTC)

Forecast

The report was made 3 hours and 40 minutes ago, at 14:00 UTC
Forecast valid from 22 at 15 UTC to 22 at 24 UTC
Wind 5 kt from the South/Southwest
Visibility: 3200 m
Few clouds at a height of 2000 ft
Scattered clouds at a height of 10000 ft
haze
Becoming
from 22 at 21 UTC to 22 at 23 UTC
Visibility: 2500 m
haze

TAF: VECC 221400Z 2215/2224 20005KT 3200 HZ FEW020 SCT100 BECMG 2221/2223 2500 HZ

Weather observations and forecasts of more than 4000 airports (METAR and TAF reports).

The available stations are represented by yellow and red dots on the map.

Hover mouse over dot to see the name of the station.

Then click to see weather observations and forecasts.

To change the map : click on the green buttons with a black cross to zoom in, on the green button with a dash to zoom out, or on the green arrows for adjacent maps.


METAR-TAF: